地図

経路データ

SID SEASON NUMBER BASIN SUBBASIN NAME ISO_TIME NATURE LAT LON WMO_WIND WMO_PRES WMO_AGENCY TRACK_TYPE DIST2LAND LANDFALL IFLAG USA_AGENCY USA_ATCF_ID USA_LAT USA_LON USA_RECORD USA_STATUS USA_WIND USA_PRES USA_SSHS USA_R34_NE USA_R34_SE USA_R34_SW USA_R34_NW USA_R50_NE USA_R50_SE USA_R50_SW USA_R50_NW USA_R64_NE USA_R64_SE USA_R64_SW USA_R64_NW USA_POCI USA_ROCI USA_RMW USA_EYE TOKYO_LAT TOKYO_LON TOKYO_GRADE TOKYO_WIND TOKYO_PRES TOKYO_R50_DIR TOKYO_R50_LONG TOKYO_R50_SHORT TOKYO_R30_DIR TOKYO_R30_LONG TOKYO_R30_SHORT TOKYO_LAND CMA_LAT CMA_LON CMA_CAT CMA_WIND CMA_PRES HKO_LAT HKO_LON HKO_CAT HKO_WIND HKO_PRES NEWDELHI_LAT NEWDELHI_LON NEWDELHI_GRADE NEWDELHI_WIND NEWDELHI_PRES NEWDELHI_CI NEWDELHI_DP NEWDELHI_POCI REUNION_LAT REUNION_LON REUNION_TYPE REUNION_WIND REUNION_PRES REUNION_TNUM REUNION_CI REUNION_RMW REUNION_R34_NE REUNION_R34_SE REUNION_R34_SW REUNION_R34_NW REUNION_R50_NE REUNION_R50_SE REUNION_R50_SW REUNION_R50_NW REUNION_R64_NE REUNION_R64_SE REUNION_R64_SW REUNION_R64_NW BOM_LAT BOM_LON BOM_TYPE BOM_WIND BOM_PRES BOM_TNUM BOM_CI BOM_RMW BOM_R34_NE BOM_R34_SE BOM_R34_SW BOM_R34_NW BOM_R50_NE BOM_R50_SE BOM_R50_SW BOM_R50_NW BOM_R64_NE BOM_R64_SE BOM_R64_SW BOM_R64_NW BOM_ROCI BOM_POCI BOM_EYE BOM_POS_METHOD BOM_PRES_METHOD NADI_LAT NADI_LON NADI_CAT NADI_WIND NADI_PRES WELLINGTON_LAT WELLINGTON_LON WELLINGTON_WIND WELLINGTON_PRES DS824_LAT DS824_LON DS824_STAGE DS824_WIND DS824_PRES TD9636_LAT TD9636_LON TD9636_STAGE TD9636_WIND TD9636_PRES TD9635_LAT TD9635_LON TD9635_WIND TD9635_PRES TD9635_ROCI NEUMANN_LAT NEUMANN_LON NEUMANN_CLASS NEUMANN_WIND NEUMANN_PRES MLC_LAT MLC_LON MLC_CLASS MLC_WIND MLC_PRES USA_GUST BOM_GUST BOM_GUST_PER REUNION_GUST REUNION_GUST_PER USA_SEAHGT USA_SEARAD_NE USA_SEARAD_SE USA_SEARAD_SW USA_SEARAD_NW STORM_SPEED STORM_DIR
1911032S21115 1911 11 SI WA NOT_NAMED 1911-02-01 06:00:00 NR -20.5000 115.200 main 98 98 _____O________ -1 -20.5000 115.200 99 9.90000 2 24
1911032S21115 1911 11 SI WA NOT_NAMED 1911-02-01 09:00:00 NR -20.4279 115.250 main 106 100 _____P________ -1 -20.4279 115.250 99 2 33
1911032S21115 1911 11 SI WA NOT_NAMED 1911-02-01 12:00:00 NR -20.3674 115.292 main 100 100 _____P________ -1 -20.3674 115.292 99 1 29
1911032S21115 1911 11 SI WA NOT_NAMED 1911-02-01 15:00:00 NR -20.3302 115.316 main 109 109 _____P________ -1 -20.3302 115.316 99 0 3
1911032S21115 1911 11 SI WA NOT_NAMED 1911-02-01 18:00:00 NR -20.3279 115.317 main 109 100 _____P________ -1 -20.3279 115.317 99 1 221
1911032S21115 1911 11 SI WA NOT_NAMED 1911-02-01 21:00:00 NR -20.3721 115.283 main 100 98 _____P________ -1 -20.3721 115.283 99 2 216
1911032S21115 1911 11 SI WA NOT_NAMED 1911-02-02 00:00:00 NR -20.4745 115.209 main 98 98 _____P________ -1 -20.4745 115.209 99 3 214
1911032S21115 1911 11 SI WA NOT_NAMED 1911-02-02 03:00:00 NR -20.6466 115.084 main 98 84 _____P________ -1 -20.6466 115.084 99 5 214
1911032S21115 1911 11 SI WA NOT_NAMED 1911-02-02 06:00:00 NR -20.9000 114.900 main 84 59 _____O________ -1 -20.9000 114.900 99 9.90000 7 214
1911032S21115 1911 11 SI WA NOT_NAMED 1911-02-02 09:00:00 NR -21.2405 114.652 main 59 30 _____P________ -1 -21.2405 114.652 99 9 214
1911032S21115 1911 11 SI WA NOT_NAMED 1911-02-02 12:00:00 NR -21.6509 114.352 main 23 0 _____P________ -1 -21.6509 114.352 99 11 214
1911032S21115 1911 11 SI WA NOT_NAMED 1911-02-02 15:00:00 NR -22.1082 114.013 main 0 0 _____P________ -1 -22.1082 114.013 99 11 215
1911032S21115 1911 11 SI WA NOT_NAMED 1911-02-02 18:00:00 NR -22.5895 113.651 main 0 0 _____P________ -1 -22.5895 113.651 99 12 215
1911032S21115 1911 11 SI WA NOT_NAMED 1911-02-02 21:00:00 NR -23.0720 113.283 main 51 51 _____P________ -1 -23.0720 113.283 99 12 215
1911032S21115 1911 11 SI WA NOT_NAMED 1911-02-03 00:00:00 NR -23.5328 112.924 main 75 69 _____P________ -1 -23.5328 112.924 99 11 216
1911032S21115 1911 11 SI WA NOT_NAMED 1911-02-03 03:00:00 NR -23.9496 112.590 main 91 91 _____P________ -1 -23.9496 112.590 99 10 217
1911032S21115 1911 11 SI WA NOT_NAMED 1911-02-03 06:00:00 NR -24.3000 112.300 main 111 111 _____O________ -1 -24.3000 112.300 99 9.90000 8 218
1911032S21115 1911 11 SI WA NOT_NAMED 1911-02-03 09:00:00 NR -24.5674 112.066 main 133 133 _____P________ -1 -24.5674 112.066 99 6 220
1911032S21115 1911 11 SI WA NOT_NAMED 1911-02-03 12:00:00 NR -24.7577 111.885 main 158 158 _____P________ -1 -24.7577 111.885 99 4 222
1911032S21115 1911 11 SI WA NOT_NAMED 1911-02-03 15:00:00 NR -24.8819 111.750 main 180 180 _____P________ -1 -24.8819 111.750 99 3 227
1911032S21115 1911 11 SI WA NOT_NAMED 1911-02-03 18:00:00 NR -24.9512 111.653 main 184 184 _____P________ -1 -24.9512 111.653 99 2 238
1911032S21115 1911 11 SI WA NOT_NAMED 1911-02-03 21:00:00 NR -24.9768 111.588 main 193 193 _____P________ -1 -24.9768 111.588 99 1 259
1911032S21115 1911 11 SI WA NOT_NAMED 1911-02-04 00:00:00 NR -24.9694 111.546 main 203 199 _____P________ -1 -24.9694 111.546 99 1 302
1911032S21115 1911 11 SI WA NOT_NAMED 1911-02-04 03:00:00 NR -24.9402 111.519 main 199 199 _____P________ -1 -24.9402 111.519 99 1 331
1911032S21115 1911 11 SI WA NOT_NAMED 1911-02-04 06:00:00 NR -24.9000 111.500 main 199 _____O________ -1 -24.9000 111.500 99 9.90000 1 0

IBTrACS Databaseについて

本データベースは、米国NOAAが公開する1842年以降の世界の熱帯低気圧のベストトラックデータアーカイブInternational Best Track Archive for Climate Stewardship (IBTrACS)を、ウェブで閲覧しやすい形式に変換したものです。

最終更新日:2021-10-25